Tiempo atmosférico en la estación meteorológica de Guijo De Granadilla, Cáceres (393 m.)



Fecha
DESCASC
Temp. máxima en grados centígrados (hora)
DESCASC
Temp. mínima en grados centígrados (hora)
DESCASC
Temp. media en grados centígrados
DESCASC
Racha de viento máxima en m/sg (hora)
DESCASC
Velocidad máxima media en intervalos de 10 minutos(hora)
DESCASC
Precipitaciones diarias en mm
DESCASC
Precipitaciones de 00:00 a 06:00 en mm
DESCASC
Precipitaciones de 06:00 a 12:00 en mm
DESCASC
Precipitaciones de 12:00 a 18:00 en mm
DESCASC
Precipitaciones de 18:00 a 24:00 en mm
DESCASC
25-01-2020 10.6 (14:10) 4.8 (23:59) 7.7 3.33 (15:00) 2.22 (04:50) 7.2 4.4 2.8 0 0
24-01-2020 12.3 (16:20) 6.7 (08:30) 9.5 6.11 (05:10) 3.33 (01:30) 0.6 0.2 0.2 0.2 0
23-01-2020 10.3 (14:20) 6.4 (02:50) 8.4 8.89 (14:40) 4.72 (14:40) 0.4 0.2 0.2 0 0
22-01-2020 10.6 (16:20) 5.7 (00:00) 8.2 7.22 (02:20) 4.17 (03:00) 0.4 0 0.4 0 0
21-01-2020 7.9 (18:40) 2.8 (00:00) 5.4 13.61 (11:30) 8.89 (12:50) 0 0 0 0 0
20-01-2020 7.6 (15:40) 2.8 (00:00) 5.2 20.28 (10:30) 12.5 (12:20) 0 0 0 0 0
19-01-2020 10.8 (14:30) 4.7 (00:00) 7.8 20.83 (13:00) 13.33 (13:00) 0 0 0 0 0
18-01-2020 12.4 (14:10) 6.9 (00:00) 9.6 8.61 (12:20) 4.72 (11:50) 8.6 5 3 0.2 0.4
17-01-2020 13.9 (16:30) 7 (00:00) 10.4 4.72 (00:10) 2.78 (00:10) 0 0 0 0 0
16-01-2020 14.5 (15:50) 9.6 (00:00) 12.1 11.11 (15:50) 6.67 (15:50) 1.2 0.2 0 0 1
15-01-2020 10.3 (17:00) 7.9 (00:00) 9.1 11.11 (06:40) 6.67 (06:40) 6.8 0 5.2 1.6 0
14-01-2020 9.6 (23:50) -1.1 (-00:0) 4.3 10.28 (22:20) 5.56 (23:59) 0.2 0 0 0 0.2
13-01-2020 11.1 (15:00) -1.1 (-00:0) 5 4.17 (15:40) 2.78 (17:00) 0 0 0 0 0
12-01-2020 12.7 (16:00) 0.7 (00:00) 6.7 5 (05:20) 3.06 (05:40) 0 0 0 0 0
11-01-2020 12.6 (15:40) 1.5 (00:00) 7.1 6.67 (05:00) 3.89 (04:30) 0 0 0 0 0
10-01-2020 12.1 (16:00) 5.2 (00:00) 8.7 11.11 (11:30) 6.94 (11:10) 0 0 0 0 0
09-01-2020 14.5 (15:20) 0.9 (00:00) 7.7 4.72 (16:40) 2.78 (16:30) 0 0 0 0 0
08-01-2020 14.7 (16:00) -1.1 (-00:0) 6.8 3.89 (01:30) 2.22 (01:30) 0 0 0 0 0
07-01-2020 15.4 (16:20) 0.6 (00:00) 8 4.17 (09:20) 2.5 (11:10) 0 0 0 0 0
06-01-2020 13.9 (16:10) 0.2 (00:00) 7 3.89 (00:30) 2.5 (01:00) 0 0 0 0 0
05-01-2020 13.8 (16:00) 2.9 (00:00) 8.4 7.5 (07:50) 4.72 (07:50) 0 0 0 0 0
04-01-2020 12 (13:50) 3 (00:00) 7.5 9.72 (14:30) 6.11 (14:10) 0 0 0 0 0
03-01-2020 13.9 (15:30) 2 (00:00) 7.9 8.89 (19:30) 5.83 (22:10) 0 0 0 0 0
02-01-2020 12.3 (15:20) 0.2 (00:00) 6.3 2.78 (17:10) 1.94 (17:10) 0 0 0 0 0
01-01-2020 14.6 (15:40) 1 (00:00) 7.8 4.17 (03:40) 2.78 (03:40) 0 0 0 0 0
31-12-2019 14.3 (16:20) -0.5 (-00:0) 6.9 3.33 (05:50) 1.94 (05:00) 0 0 0 0 0
30-12-2019 15.1 (16:00) 0.1 (00:00) 7.6 5 (03:30) 2.78 (03:40) 0 0 0 0 0
29-12-2019 17.8 (16:10) 2.8 (00:00) 10.3 4.72 (04:20) 2.78 (06:00) 0 0 0 0 0
28-12-2019 16.6 (16:20) 4.2 (00:00) 10.4 5.28 (06:40) 3.06 (03:30) 0 0 0 0 0

Gráficas

Temp. máximas Temp. mínimas Temp. medias Precipitaciones Rachas de viento máximas Velocidades máximas media en intervalos de 10 minutos

Datos horarios

Fecha y hora oficial Temperatura (ºC) Velocidad del viento (km/h) Dirección del viento Racha (km/h) Dirección de racha Precipitación (mm) Presión (hPa) Tendencia (hPa) Humedad (%)
2020-01-26 23:00:00 7.7 2 Oeste 4 Sur 0 -- -- 89
2020-01-26 22:00:00 8.3 2 Sudoeste 4 Este 0 -- -- 86
2020-01-26 21:00:00 8.7 2 Sudeste 5 Sudeste 0 -- -- 82
2020-01-26 20:00:00 9 2 Este 5 Sudeste 0 -- -- 84
2020-01-26 19:00:00 9.8 4 Sudoeste 12 Sudoeste 0 -- -- 78
2020-01-26 18:00:00 10.5 7 Sudoeste 14 Sudoeste 0 -- -- 71
2020-01-26 17:00:00 11.6 9 Sudoeste 17 Sudoeste 0 -- -- 65
2020-01-26 16:00:00 11.9 11 Sur 18 Sur 0 -- -- 62
2020-01-26 15:00:00 11.5 11 Sudoeste 19 Sudoeste 0 -- -- 69
2020-01-26 14:00:00 10.5 12 Sudoeste 18 Sudoeste 0 -- -- 73
2020-01-26 13:00:00 10.7 5 Sudoeste 13 Sudoeste 0 -- -- 75
2020-01-26 12:00:00 8.6 3 Este 7 Nordeste 0 -- -- 83
2020-01-26 11:00:00 6 0 Calma 10 Norte 0 -- -- 95
2020-01-26 10:00:00 3.8 4 Nordeste 8 Nordeste 0 -- -- 99
2020-01-26 09:00:00 1.5 3 Norte 9 Norte 0 -- -- 98
2020-01-26 08:00:00 2.4 4 Norte 9 Norte 0 -- -- 98
2020-01-26 07:00:00 2.3 5 Este 7 Este 0 -- -- 97
2020-01-26 06:00:00 1.5 3 Nordeste 5 Nordeste 0 -- -- 98
2020-01-26 05:00:00 1.5 2 Nordeste 7 Noroeste 0 -- -- 97
2020-01-26 04:00:00 3 0 Calma 6 Norte 0 -- -- 97
2020-01-26 03:00:00 4.1 4 Norte 9 Nordeste 0 -- -- 97
2020-01-26 02:00:00 3.9 5 Nordeste 8 Nordeste 0 -- -- 97
2020-01-26 01:00:00 4.1 3 Nordeste 8 Noroeste 0.2 -- -- 96
2020-01-26 00:00:00 4.8 5 Noroeste 8 Noroeste 0 -- -- 96
2020-01-25 23:00:00 6 5 Noroeste 8 Noroeste 0 -- -- 96
2020-01-25 22:00:00 7 4 Norte 6 Este 0 -- -- 95
2020-01-25 21:00:00 8.2 3 Este 4 Este 0 -- -- 94
2020-01-25 20:00:00 8.5 2 Este 6 Sudeste 0 -- -- 93
2020-01-25 19:00:00 9.4 3 Sur 3 Sudeste 0 -- -- 91
2020-01-25 18:00:00 9.8 0 Calma 11 Oeste 0 -- -- 90
2020-01-25 17:00:00 9.9 6 Oeste 12 Oeste 0 -- -- 92
2020-01-25 16:00:00 9.9 6 Noroeste 10 Oeste 0 -- -- 92
2020-01-25 15:00:00 9.7 7 Noroeste 12 Noroeste 0 -- -- 90
2020-01-25 14:00:00 10.1 0 Calma 5 Norte 0 -- -- 87
2020-01-25 13:00:00 9.1 0 Calma 7 Norte 0 -- -- 88
2020-01-25 12:00:00 8.3 5 Norte 10 Nordeste 0 -- -- 95
2020-01-25 11:00:00 7.3 4 Nordeste 8 Nordeste 0.6 -- -- 97
2020-01-25 10:00:00 6.6 0 Calma 6 Nordeste 0.8 -- -- 97
2020-01-25 09:00:00 6.5 3 Nordeste 8 Este 0.6 -- -- 96
2020-01-25 08:00:00 6.4 4 Nordeste 9 Nordeste 0.4 -- -- 95
2020-01-25 07:00:00 6.5 5 Nordeste 9 Nordeste 0.4 -- -- 95
2020-01-25 06:00:00 6.5 5 Nordeste 10 Nordeste 0.2 -- -- 95
2020-01-25 05:00:00 6.6 5 Nordeste 12 Nordeste 1.8 -- -- 95
2020-01-25 04:00:00 6.9 5 Norte 10 Noroeste 2.2 -- -- 94
2020-01-25 03:00:00 7.2 4 Noroeste 7 Oeste 0.2 -- -- 91
2020-01-25 02:00:00 7 4 Sudoeste 7 Sudeste 0 -- -- 92
2020-01-25 01:00:00 7.3 0 Calma 7 Norte 0 -- -- 87
2020-01-25 00:00:00 7 0 Calma 6 Norte 0 -- -- 89
2020-01-24 23:00:00 7.7 4 Este 8 Norte 0 -- -- 89
2020-01-24 22:00:00 7.7 4 Norte 5 Nordeste 0 -- -- 91
2020-01-24 21:00:00 7.7 0 Calma 4 Sudoeste 0 -- -- 89
2020-01-24 20:00:00 8.1 3 Nordeste 6 Oeste 0 -- -- 86
2020-01-24 19:00:00 9.5 3 Noroeste 8 Nordeste 0 -- -- 79
2020-01-24 18:00:00 10.4 5 Sudeste 18 Sur 0 -- -- 77
2020-01-24 17:00:00 11.4 9 Sur 18 Sur 0.2 -- -- 72
2020-01-24 16:00:00 11.8 4 Sur 14 Sur 0 -- -- 70
2020-01-24 15:00:00 10.9 3 Oeste 8 Noroeste 0 -- -- 75
2020-01-24 14:00:00 10.8 3 Sur 10 Sudeste 0 -- -- 73
2020-01-24 13:00:00 10.1 0 Calma 4 Nordeste 0 -- -- 79
2020-01-24 12:00:00 9.5 3 Nordeste 7 Este 0 -- -- 83
2020-01-24 11:00:00 8.6 0 Calma 4 Norte 0 -- -- 83
2020-01-24 10:00:00 7.6 0 Calma 6 Nordeste 0 -- -- 93
2020-01-24 09:00:00 6.7 2 Nordeste 5 Nordeste 0 -- -- 94
2020-01-24 08:00:00 6.9 0 Calma 6 Norte 0 -- -- 94
2020-01-24 07:00:00 7.3 3 Sur 10 Sudeste 0.2 -- -- 88
2020-01-24 06:00:00 7.5 3 Este 22 Sudeste 0 -- -- 91
2020-01-24 05:00:00 8.2 9 Sudeste 18 Sudeste 0 -- -- 82
2020-01-24 04:00:00 8.2 8 Sudeste 16 Sudeste 0.2 -- -- 81
2020-01-24 03:00:00 8.6 3 Sudeste 15 Sudeste 0 -- -- 82
2020-01-24 02:00:00 9.1 8 Sudeste 20 Sudeste 0 -- -- 81
2020-01-24 01:00:00 9.1 8 Sudeste 18 Sur 0 -- -- 82
2020-01-24 00:00:00 9.1 8 Sudeste 15 Sudeste 0 -- -- 82
2020-01-23 23:00:00 9.1 10 Sur 28 Sudeste 0 -- -- 82
2020-01-23 22:00:00 8.9 9 Sudeste 26 Sudeste 0 -- -- 82
2020-01-23 21:00:00 9.6 15 Sudeste 30 Sur 0 -- -- 77
2020-01-23 20:00:00 9.5 7 Sudeste 22 Sudeste 0 -- -- 77
2020-01-23 19:00:00 9.5 9 Sudeste 22 Sudeste 0 -- -- 75
2020-01-23 18:00:00 9.7 8 Sudeste 22 Sudeste 0 -- -- 74
2020-01-23 17:00:00 10 5 Sudeste 24 Sudeste 0 -- -- 73
2020-01-23 16:00:00 9.8 14 Sudeste 28 Sudeste 0 -- -- 73
2020-01-23 15:00:00 9.8 10 Este 32 Este 0 -- -- 73
2020-01-23 14:00:00 9.7 14 Sudeste 28 Este 0 -- -- 71
2020-01-23 13:00:00 8.9 7 Este 24 Este 0 -- -- 75
2020-01-23 12:00:00 8.2 5 Sudoeste 10 Sudoeste 0.2 -- -- 87
2020-01-23 11:00:00 8.7 0 Calma 11 Este 0 -- -- 79
2020-01-23 10:00:00 8.3 5 Sudeste 21 Este 0 -- -- 77
2020-01-23 09:00:00 8 12 Sudeste 26 Sudeste 0 -- -- 76
2020-01-23 08:00:00 7.3 3 Sur 23 Sudeste 0 -- -- 83
2020-01-23 07:00:00 7.4 7 Sudeste 13 Sudeste 0 -- -- 80
2020-01-23 06:00:00 7.1 4 Norte 15 Sudeste 0 -- -- 84
2020-01-23 05:00:00 7.7 3 Este 24 Sudeste 0 -- -- 82
2020-01-23 04:00:00 7.9 10 Este 23 Este 0.2 -- -- 82
2020-01-23 03:00:00 6.9 6 Sur 13 Sudeste 0 -- -- 81
2020-01-23 02:00:00 7.1 3 Sudeste 10 Este 0 -- -- 76
2020-01-23 01:00:00 7.3 6 Nordeste 10 Norte 0 -- -- 73
2020-01-23 00:00:00 7.7 6 Nordeste 14 Norte 0 -- -- 70
2020-01-22 23:00:00 8 6 Nordeste 12 Norte 0 -- -- 71
2020-01-22 22:00:00 7.5 7 Nordeste 19 Norte 0 -- -- 83
2020-01-22 21:00:00 7.2 4 Este 10 Nordeste 0 -- -- 87
2020-01-22 20:00:00 7.2 4 Norte 5 Norte 0 -- -- 84
2020-01-22 19:00:00 7.5 0 Calma 8 Noroeste 0 -- -- 81
2020-01-22 18:00:00 9.5 4 Noroeste 6 Noroeste 0 -- -- 74
2020-01-22 17:00:00 10.4 3 Oeste 6 Noroeste 0 -- -- 68
2020-01-22 16:00:00 10.4 2 Nordeste 8 Nordeste 0 -- -- 65
2020-01-22 15:00:00 10.2 5 Nordeste 17 Norte 0 -- -- 67
2020-01-22 14:00:00 10 8 Norte 16 Norte 0 -- -- 68
2020-01-22 13:00:00 9 5 Nordeste 15 Norte 0 -- -- 72
2020-01-22 12:00:00 8 5 Nordeste 13 Nordeste 0 -- -- 74
2020-01-22 11:00:00 7.1 8 Norte 16 Nordeste 0 -- -- 77
2020-01-22 10:00:00 6.5 8 Norte 16 Norte 0 -- -- 80
2020-01-22 09:00:00 6 10 Norte 16 Norte 0.2 -- -- 85
2020-01-22 08:00:00 6.3 6 Nordeste 22 Norte 0 -- -- 80
2020-01-22 07:00:00 6.2 14 Norte 25 Norte 0.2 -- -- 82
2020-01-22 06:00:00 6.4 13 Norte 19 Nordeste 0 -- -- 81
2020-01-22 05:00:00 6.6 12 Norte 22 Norte 0 -- -- 76
2020-01-22 04:00:00 6.4 12 Norte 24 Nordeste 0 -- -- 76
2020-01-22 03:00:00 6.4 15 Norte 26 Nordeste 0 -- -- 74
2020-01-22 02:00:00 6.2 14 Norte 24 Norte 0 -- -- 74
2020-01-22 01:00:00 6.1 11 Norte 22 Norte 0 -- -- 75
2020-01-22 00:00:00 6 9 Norte 16 Nordeste 0 -- -- 75
2020-01-21 23:00:00 6.6 11 Nordeste 34 Norte 0 -- -- 72
2020-01-21 22:00:00 6.9 16 Norte 29 Norte 0 -- -- 72
2020-01-21 21:00:00 7.5 16 Nordeste 29 Nordeste 0 -- -- 71
2020-01-21 20:00:00 7.6 18 Nordeste 36 Nordeste 0 -- -- 69
2020-01-21 19:00:00 7.7 17 Nordeste 40 Nordeste 0 -- -- 68
2020-01-21 18:00:00 7.7 22 Nordeste 42 Nordeste 0 -- -- 66
2020-01-21 17:00:00 7.6 22 Nordeste 36 Norte 0 -- -- 66
2020-01-21 16:00:00 7.5 26 Nordeste 41 Nordeste 0 -- -- 66
2020-01-21 15:00:00 7.3 22 Nordeste 40 Norte 0 -- -- 64
2020-01-21 14:00:00 7.3 26 Nordeste 46 Nordeste 0 -- -- 62
2020-01-21 13:00:00 7.1 31 Nordeste 49 Nordeste 0 -- -- 60
2020-01-21 12:00:00 6.3 31 Norte 49 Nordeste 0 -- -- 63
2020-01-21 11:00:00 5.7 24 Nordeste 42 Nordeste 0 -- -- 63
2020-01-21 10:00:00 4.6 18 Nordeste 37 Nordeste 0 -- -- 66
2020-01-21 09:00:00 3.4 17 Norte 30 Nordeste 0 -- -- 69
2020-01-21 08:00:00 3.2 15 Norte 30 Norte 0 -- -- 70
2020-01-21 07:00:00 2.8 18 Norte 34 Nordeste 0 -- -- 70
2020-01-21 06:00:00 3.2 23 Nordeste 40 Nordeste 0 -- -- 68
2020-01-21 05:00:00 3.2 24 Norte 40 Nordeste 0 -- -- 68
2020-01-21 04:00:00 3.5 19 Norte 37 Nordeste 0 -- -- 68
2020-01-21 03:00:00 3.2 19 Norte 35 Norte 0 -- -- 70
2020-01-21 02:00:00 3.7 20 Nordeste 42 Norte 0 -- -- 71
2020-01-21 01:00:00 4 22 Norte 38 Norte 0 -- -- 68
2020-01-21 00:00:00 4.3 18 Norte 37 Norte 0 -- -- 62
2020-01-20 23:00:00 4.8 22 Nordeste 36 Norte 0 -- -- 60
2020-01-20 22:00:00 5.1 19 Nordeste 46 Nordeste 0 -- -- 58
2020-01-20 21:00:00 5.4 28 Nordeste 56 Nordeste 0 -- -- 55
2020-01-20 20:00:00 5.8 30 Nordeste 53 Nordeste 0 -- -- 53
2020-01-20 19:00:00 5.8 32 Nordeste 49 Nordeste 0 -- -- 51
2020-01-20 18:00:00 6.2 30 Nordeste 50 Nordeste 0 -- -- 47
2020-01-20 17:00:00 6.9 22 Nordeste 45 Nordeste 0 -- -- 48
2020-01-20 16:00:00 7 31 Nordeste 53 Nordeste 0 -- -- 46
2020-01-20 15:00:00 7.4 30 Nordeste 58 Nordeste 0 -- -- 47
2020-01-20 14:00:00 6.5 32 Nordeste 63 Nordeste 0 -- -- 47
2020-01-20 13:00:00 5.6 41 Nordeste 71 Nordeste 0 -- -- 48
2020-01-20 12:00:00 4.8 38 Nordeste 69 Nordeste 0 -- -- 52
2020-01-20 11:00:00 4.4 36 Nordeste 73 Norte 0 -- -- 53
2020-01-20 10:00:00 3.5 36 Nordeste 61 Nordeste 0 -- -- 56
2020-01-20 09:00:00 2.9 34 Nordeste 68 Nordeste 0 -- -- 58
2020-01-20 08:00:00 2.9 36 Nordeste 68 Nordeste 0 -- -- 57
2020-01-20 07:00:00 3.1 37 Nordeste 69 Nordeste 0 -- -- 55
2020-01-20 06:00:00 3.4 41 Nordeste 70 Nordeste 0 -- -- 56
2020-01-20 05:00:00 3.5 38 Nordeste 71 Nordeste 0 -- -- 56
2020-01-20 04:00:00 3.9 41 Nordeste 72 Norte 0 -- -- 55
2020-01-20 03:00:00 4.3 37 Nordeste 64 Nordeste 0 -- -- 54
2020-01-20 02:00:00 4.4 32 Nordeste 51 Nordeste 0 -- -- 54
2020-01-20 01:00:00 4.3 33 Nordeste 63 Nordeste 0 -- -- 56
2020-01-20 00:00:00 4.7 35 Nordeste 69 Nordeste 0 -- -- 54
2020-01-19 23:00:00 4.8 30 Nordeste 64 Nordeste 0 -- -- 55
2020-01-19 22:00:00 5.2 41 Nordeste 69 Norte 0 -- -- 54
2020-01-19 21:00:00 5.7 35 Nordeste 67 Nordeste 0 -- -- 52
2020-01-19 20:00:00 6.7 37 Nordeste 67 Nordeste 0 -- -- 48
2020-01-19 19:00:00 7.8 35 Nordeste 63 Nordeste 0 -- -- 48
2020-01-19 18:00:00 9 35 Nordeste 72 Nordeste 0 -- -- 48
2020-01-19 17:00:00 10.2 37 Nordeste 64 Nordeste 0 -- -- 42
2020-01-19 16:00:00 10.7 32 Nordeste 59 Norte 0 -- -- 44
2020-01-19 15:00:00 10.8 32 Nordeste 69 Nordeste 0 -- -- 43
2020-01-19 14:00:00 10.7 42 Nordeste 69 Nordeste 0 -- -- 42
2020-01-19 13:00:00 10.1 48 Nordeste 75 Nordeste 0 -- -- 49
2020-01-19 12:00:00 10.1 29 Nordeste 58 Nordeste 0 -- -- 59
2020-01-19 11:00:00 9.8 25 Nordeste 49 Nordeste 0 -- -- 64
2020-01-19 10:00:00 8.3 27 Nordeste 45 Nordeste 0 -- -- 69
2020-01-19 09:00:00 7.1 22 Nordeste 41 Nordeste 0 -- -- 77
2020-01-19 08:00:00 7.3 18 Nordeste 33 Nordeste 0 -- -- 77
2020-01-19 07:00:00 7.5 17 Nordeste 29 Nordeste 0 -- -- 79
2020-01-19 06:00:00 7.4 14 Nordeste 24 Nordeste 0 -- -- 82
2020-01-19 05:00:00 6.5 8 Norte 13 Nordeste 0 -- -- 90
2020-01-19 04:00:00 5.7 3 Norte 6 Noroeste 0 -- -- 92
2020-01-19 03:00:00 7.6 0 Calma 12 Sudoeste 0 -- -- 87
2020-01-19 02:00:00 7.9 5 Sudoeste 19 Oeste 0 -- -- 84
2020-01-19 01:00:00 7.6 5 Oeste 14 Noroeste 0 -- -- 87
2020-01-19 00:00:00 8 7 Noroeste 16 Noroeste 0 -- -- 80
2020-01-18 23:00:00 7.7 3 Oeste 14 Norte 0 -- -- 87
2020-01-18 22:00:00 8.8 3 Norte 15 Noroeste 0.4 -- -- 90
2020-01-18 21:00:00 9.9 6 Oeste 13 Sudoeste 0 -- -- 96
2020-01-18 20:00:00 10 3 Oeste 10 Sudoeste 0 -- -- 96
2020-01-18 19:00:00 10.6 6 Sudoeste 11 Sudoeste 0 -- -- 96
2020-01-18 18:00:00 10.4 6 Sudoeste 15 Sudoeste 0 -- -- 96
2020-01-18 17:00:00 10.6 9 Sudoeste 19 Sur 0.2 -- -- 94
2020-01-18 16:00:00 11.1 10 Sudoeste 23 Sur 0 -- -- 89
2020-01-18 15:00:00 11.9 14 Sur 24 Sur 0 -- -- 83
2020-01-18 14:00:00 12.2 10 Sur 21 Sur 0 -- -- 81
2020-01-18 13:00:00 11.8 15 Sur 31 Sudeste 0 -- -- 83
2020-01-18 12:00:00 10.4 13 Sur 30 Sudeste 0 -- -- 88
2020-01-18 11:00:00 9 8 Oeste 15 Oeste 0 -- -- 97
2020-01-18 10:00:00 8.5 9 Oeste 15 Sudoeste 0.4 -- -- 97
2020-01-18 09:00:00 8.2 8 Sur 26 Sur 0.4 -- -- 97
2020-01-18 08:00:00 7.7 5 Sudoeste 11 Oeste 0.4 -- -- 97
2020-01-18 07:00:00 7.7 4 Nordeste 10 Nordeste 1.8 -- -- 97
2020-01-18 06:00:00 7.7 5 Nordeste 10 Nordeste 2.4 -- -- 96
2020-01-18 05:00:00 7.5 4 Nordeste 8 Oeste 2.2 -- -- 95
2020-01-18 04:00:00 7.7 4 Oeste 8 Oeste 0.4 -- -- 92
2020-01-18 03:00:00 7.4 2 Noroeste 6 Noroeste 0 -- -- 93
2020-01-18 02:00:00 6.9 4 Norte 5 Nordeste 0 -- -- 94
2020-01-18 01:00:00 7.1 3 Sudoeste 5 Sudoeste 0 -- -- 93
2020-01-18 00:00:00 7 4 Sudoeste 6 Sur 0 -- -- 93
2020-01-17 23:00:00 7.5 0 Calma 6 Sudoeste 0 -- -- 89
2020-01-17 22:00:00 7.8 3 Sudoeste 5 Sudoeste 0 -- -- 89
2020-01-17 21:00:00 8.2 4 Sudeste 9 Este 0 -- -- 87
2020-01-17 20:00:00 8.9 4 Noroeste 7 Oeste 0 -- -- 83
2020-01-17 19:00:00 9.3 5 Sudoeste 8 Sudoeste 0 -- -- 81
2020-01-17 18:00:00 11.8 5 Sudoeste 10 Sudoeste 0 -- -- 72
2020-01-17 17:00:00 13.4 8 Sur 15 Sur 0 -- -- 68
2020-01-17 16:00:00 13.1 6 Sudeste 11 Sudeste 0 -- -- 71
2020-01-17 15:00:00 11.8 4 Este 9 Este 0 -- -- 78
2020-01-17 14:00:00 11.7 5 Nordeste 8 Nordeste 0 -- -- 82
2020-01-17 13:00:00 11.5 4 Este 12 Sudoeste 0 -- -- 85
2020-01-17 12:00:00 11.5 6 Sudoeste 11 Sudoeste 0 -- -- 88
2020-01-17 11:00:00 10 3 Sudoeste 8 Sudoeste 0 -- -- 96
2020-01-17 10:00:00 9.1 4 Sudoeste 9 Sur 0 -- -- 96
2020-01-17 09:00:00 9 4 Sur 8 Sur 0 -- -- 96
2020-01-17 08:00:00 9 4 Sur 8 Sudeste 0 -- -- 95
2020-01-17 07:00:00 8.8 4 Sur 10 Sur 0 -- -- 95
2020-01-17 06:00:00 8.9 3 Sur 5 Sudeste 0 -- -- 95
2020-01-17 05:00:00 9.2 3 Sur 10 Sur 0 -- -- 94
2020-01-17 04:00:00 9.3 3 Sur 8 Sudoeste 0 -- -- 93
2020-01-17 03:00:00 9.5 4 Sudoeste 12 Sur 0 -- -- 93
2020-01-17 02:00:00 9.7 6 Sur 14 Sudoeste 0 -- -- 92
2020-01-17 01:00:00 10 8 Sur 17 Sudoeste 0 -- -- 91
2020-01-17 00:00:00 10.3 13 Sudoeste 25 Sudoeste 0 -- -- 88
2020-01-16 23:00:00 10 5 Sudoeste 16 Sudoeste 0 -- -- 86
2020-01-16 22:00:00 9.9 3 Sudoeste 20 Sur 1 -- -- 87
2020-01-16 21:00:00 12 11 Sur 22 Sur 0 -- -- 67
2020-01-16 20:00:00 12 12 Sur 23 Sur 0 -- -- 65
2020-01-16 19:00:00 12.1 15 Sur 24 Sur 0 -- -- 66
2020-01-16 18:00:00 12.4 9 Sur 31 Sur 0 -- -- 68
2020-01-16 17:00:00 13.7 16 Sur 36 Sudoeste 0 -- -- 64
2020-01-16 16:00:00 14.4 21 Sur 40 Sudoeste 0 -- -- 65
2020-01-16 15:00:00 13.5 15 Sur 30 Sur 0 -- -- 74
2020-01-16 14:00:00 12.6 18 Sur 32 Sur 0 -- -- 77
2020-01-16 13:00:00 12.3 20 Sur 36 Sur 0 -- -- 78
2020-01-16 12:00:00 12 17 Sur 31 Sur 0 -- -- 81
2020-01-16 11:00:00 11.2 13 Sur 24 Sur 0 -- -- 86
2020-01-16 10:00:00 10.3 14 Sur 26 Sudeste 0 -- -- 90
2020-01-16 09:00:00 10 14 Sur 25 Sur 0 -- -- 91
2020-01-16 08:00:00 10 13 Sur 28 Sudeste 0 -- -- 92
2020-01-16 07:00:00 10 15 Sur 30 Sudeste 0 -- -- 92
2020-01-16 06:00:00 9.9 12 Sur 26 Sudeste 0 -- -- 94
2020-01-16 05:00:00 9.7 9 Sur 19 Sur 0.2 -- -- 94
2020-01-16 04:00:00 9.8 6 Sudoeste 13 Sudoeste 0 -- -- 93
2020-01-16 03:00:00 9.8 6 Sudoeste 10 Sur 0 -- -- 91
2020-01-16 02:00:00 10.1 6 Sur 16 Sur 0 -- -- 90
2020-01-16 01:00:00 10.2 9 Sur 18 Sudeste 0 -- -- 90
2020-01-16 00:00:00 10.1 9 Sur 15 Sudeste 0 -- -- 91
2020-01-15 23:00:00 9.9 7 Sudoeste 13 Sudoeste 0 -- -- 92
2020-01-15 22:00:00 9.9 4 Sudoeste 10 Sur 0 -- -- 91
2020-01-15 21:00:00 9.7 6 Sudoeste 10 Sudoeste 0 -- -- 91
2020-01-15 20:00:00 9.6 5 Oeste 12 Sudoeste 0 -- -- 92
2020-01-15 19:00:00 9.9 3 Sudoeste 9 Sudeste 0 -- -- 92
2020-01-15 18:00:00 10.2 7 Sudeste 15 Sur 0 -- -- 90
2020-01-15 17:00:00 10.3 5 Sur 16 Sudeste 0 -- -- 91
2020-01-15 16:00:00 9.8 6 Sur 15 Sur 0 -- -- 93
2020-01-15 15:00:00 9.5 6 Sur 14 Sur 0.4 -- -- 94
2020-01-15 14:00:00 9 3 Sur 14 Sudoeste 0.4 -- -- 95
2020-01-15 13:00:00 8.7 9 Oeste 15 Noroeste 0.8 -- -- 95
2020-01-15 12:00:00 8.8 4 Oeste 23 Sur 2.4 -- -- 93
2020-01-15 11:00:00 9 17 Sur 35 Sudeste 1.6 -- -- 91
2020-01-15 10:00:00 9.1 18 Sur 33 Sur 0.6 -- -- 88
2020-01-15 09:00:00 8.8 15 Sur 40 Sur 0.2 -- -- 85
2020-01-15 08:00:00 8.1 16 Sur 36 Sur 0.4 -- -- 88
2020-01-15 07:00:00 9.3 19 Sur 40 Sur 0 -- -- 77
2020-01-15 06:00:00 9.5 18 Sur 39 Sur 0 -- -- 75
2020-01-15 05:00:00 8.8 13 Sur 28 Sur 0 -- -- 79
2020-01-15 04:00:00 8.4 8 Sur 22 Sur 0 -- -- 83
2020-01-15 03:00:00 8.6 8 Sur 22 Sur 0 -- -- 84
2020-01-15 02:00:00 8.9 10 Sur 27 Sur 0 -- -- 83
2020-01-15 01:00:00 9.2 17 Sur 34 Sur 0 -- -- 82
2020-01-15 00:00:00 9.6 20 Sur 37 Sur 0 -- -- 80
2020-01-14 23:00:00 9.2 13 Sur 37 Sur 0 -- -- 83
2020-01-14 22:00:00 9.3 16 Sur 32 Sur 0 -- -- 83
2020-01-14 21:00:00 8.3 13 Sur 24 Sur 0 -- -- 88
2020-01-14 20:00:00 7.4 8 Sur 19 Sur 0.2 -- -- 91
2020-01-14 19:00:00 7.5 6 Sudoeste 13 Sur 0 -- -- 85
2020-01-14 18:00:00 7.7 3 Sudoeste 5 Nordeste 0 -- -- 84
2020-01-14 17:00:00 8 2 Nordeste 8 Norte 0 -- -- 77
2020-01-14 16:00:00 8.3 3 Norte 7 Noroeste 0 -- -- 75
2020-01-14 15:00:00 8 0 Calma 5 Oeste 0 -- -- 75
2020-01-14 14:00:00 7.2 2 Oeste 9 Oeste 0 -- -- 79
2020-01-14 13:00:00 6.7 0 Calma 3 Sudoeste 0 -- -- 80
2020-01-14 12:00:00 6 0 Calma 9 Nordeste 0 -- -- 85
2020-01-14 11:00:00 4.4 3 Nordeste 6 Nordeste 0 -- -- 91
2020-01-14 10:00:00 3.4 2 Este 6 Sudoeste 0 -- -- 96
2020-01-14 09:00:00 2.7 6 Sudoeste 12 Sudoeste 0 -- -- 96
2020-01-14 08:00:00 3 2 Oeste 8 Norte 0 -- -- 94
2020-01-14 07:00:00 3.1 6 Norte 8 Norte 0 -- -- 96
2020-01-14 06:00:00 2 6 Nordeste 10 Nordeste 0 -- -- 97
2020-01-14 05:00:00 1.1 3 Norte 5 Nordeste 0 -- -- 97
2020-01-14 04:00:00 -0.1 3 Norte 5 Norte 0 -- -- 96
2020-01-14 03:00:00 -0.9 0 Calma -- -- 0 -- -- 95
2020-01-14 02:00:00 -0.6 2 Nordeste 6 Norte 0 -- -- 95
2020-01-14 01:00:00 0.1 2 Nordeste 4 Norte 0 -- -- 94
2020-01-14 00:00:00 0.3 3 Norte 6 Norte 0 -- -- 93
2020-01-13 23:00:00 1.2 2 Nordeste 4 Este 0 -- -- 88
2020-01-13 22:00:00 1.6 4 Norte 6 Noroeste 0 -- -- 90
2020-01-13 21:00:00 4.1 2 Sudoeste 8 Noroeste 0 -- -- 84
2020-01-13 20:00:00 4.6 6 Noroeste 9 Noroeste 0 -- -- 81
2020-01-13 19:00:00 5.9 5 Sudoeste 9 Sudoeste 0 -- -- 77
2020-01-13 18:00:00 8.8 6 Sudoeste 13 Sudoeste 0 -- -- 66
2020-01-13 17:00:00 10 10 Sudoeste 15 Sudoeste 0 -- -- 58
2020-01-13 16:00:00 10.3 7 Sudoeste 15 Sudoeste 0 -- -- 60
2020-01-13 15:00:00 11.1 7 Sudoeste 14 Sudoeste 0 -- -- 57
2020-01-13 14:00:00 10.2 5 Sudoeste 13 Sudoeste 0 -- -- 62
2020-01-13 13:00:00 8.1 3 Sudoeste 8 Oeste 0 -- -- 72
2020-01-13 12:00:00 5.4 0 Calma 3 Norte 0 -- -- 84
2020-01-13 11:00:00 2.6 0 Calma 6 Norte 0 -- -- 96
2020-01-13 10:00:00 -0.2 0 Calma 4 Este 0 -- -- 97
2020-01-13 09:00:00 -1.1 3 Norte 6 Norte 0 -- -- 96
2020-01-13 08:00:00 -0.6 3 Norte -- -- 0 -- -- 96
2020-01-13 07:00:00 -0.2 3 Nordeste 8 Nordeste 0 -- -- 96
2020-01-13 06:00:00 -0.7 5 Nordeste 6 Nordeste 0 -- -- 96
2020-01-13 05:00:00 -0.8 3 Norte 4 Norte 0 -- -- 96
2020-01-13 04:00:00 -0.4 2 Nordeste 5 Este 0 -- -- 96
2020-01-13 03:00:00 -0.4 3 Nordeste 5 Nordeste 0 -- -- 95
2020-01-13 02:00:00 0.5 3 Norte 5 Norte 0 -- -- 94
2020-01-13 01:00:00 1.6 3 Norte 6 Norte 0 -- -- 94
2020-01-13 00:00:00 2.1 3 Nordeste 7 Nordeste 0 -- -- 95
2020-01-12 23:00:00 1.4 4 Nordeste 5 Nordeste 0 -- -- 92
2020-01-12 22:00:00 2.8 3 Norte 4 Norte 0 -- -- 92
2020-01-12 21:00:00 3.3 3 Nordeste 4 Nordeste 0 -- -- 87
2020-01-12 20:00:00 5.2 2 Norte 4 Sur 0 -- -- 78
2020-01-12 19:00:00 7.7 3 Sudoeste 6 Sur 0 -- -- 68
2020-01-12 18:00:00 10.1 4 Sur 8 Sur 0 -- -- 60
2020-01-12 17:00:00 11.6 5 Sudoeste 10 Sudoeste 0 -- -- 52
2020-01-12 16:00:00 12.7 4 Sudoeste 10 Oeste 0 -- -- 50
2020-01-12 15:00:00 12.1 2 Oeste 9 Sudoeste 0 -- -- 51
2020-01-12 14:00:00 11.3 4 Oeste 8 Sur 0 -- -- 55
2020-01-12 13:00:00 9.5 3 Sur 6 Sudoeste 0 -- -- 62
2020-01-12 12:00:00 7.4 3 Este 6 Este 0 -- -- 68
2020-01-12 11:00:00 3.9 0 Calma 6 Nordeste 0 -- -- 82
2020-01-12 10:00:00 3 3 Nordeste 12 Nordeste 0 -- -- 82
2020-01-12 09:00:00 1.3 10 Nordeste 16 Nordeste 0 -- -- 86
2020-01-12 08:00:00 0.7 6 Este 10 Nordeste 0 -- -- 90
2020-01-12 07:00:00 1.3 5 Nordeste 12 Nordeste 0 -- -- 87
2020-01-12 06:00:00 2 8 Nordeste 18 Nordeste 0 -- -- 87
2020-01-12 05:00:00 1.9 8 Nordeste 14 Nordeste 0 -- -- 89
2020-01-12 04:00:00 1.2 6 Nordeste 12 Nordeste 0 -- -- 92
2020-01-12 03:00:00 2.2 8 Nordeste 13 Nordeste 0 -- -- 91
2020-01-12 02:00:00 1.7 6 Nordeste 10 Nordeste 0 -- -- 91
2020-01-12 01:00:00 1.8 5 Este 8 Nordeste 0 -- -- 91
2020-01-12 00:00:00 1.5 4 Nordeste 14 Nordeste 0 -- -- 89
2020-01-11 23:00:00 2.7 5 Nordeste 9 Nordeste 0 -- -- 93
2020-01-11 22:00:00 1.9 4 Nordeste 5 Nordeste 0 -- -- 91
2020-01-11 21:00:00 3.6 3 Norte 6 Norte 0 -- -- 88
2020-01-11 20:00:00 4.3 2 Nordeste 4 Nordeste 0 -- -- 78
2020-01-11 19:00:00 7.4 0 Calma -- -- 0 -- -- 67
2020-01-11 18:00:00 10 2 Sudoeste 5 Sudoeste 0 -- -- 57
2020-01-11 17:00:00 11.5 4 Sudoeste 12 Sudoeste 0 -- -- 50
2020-01-11 16:00:00 12.5 5 Sudoeste 12 Sudoeste 0 -- -- 47
2020-01-11 15:00:00 12.4 6 Sudoeste 13 Sudoeste 0 -- -- 50
2020-01-11 14:00:00 11.6 4 Sudoeste 12 Oeste 0 -- -- 50
2020-01-11 13:00:00 10.8 5 Sur 10 Sudoeste 0 -- -- 53
2020-01-11 12:00:00 9.5 0 Calma 6 Nordeste 0 -- -- 52
2020-01-11 11:00:00 6.9 4 Este 8 Nordeste 0 -- -- 69
2020-01-11 10:00:00 5.1 3 Este 9 Nordeste 0 -- -- 77
2020-01-11 09:00:00 3.3 5 Norte 11 Norte 0 -- -- 82
2020-01-11 08:00:00 3.1 7 Nordeste 14 Norte 0 -- -- 84
2020-01-11 07:00:00 4 6 Nordeste 14 Nordeste 0 -- -- 80
2020-01-11 06:00:00 5.7 9 Norte 23 Norte 0 -- -- 70
2020-01-11 05:00:00 5.8 14 Norte 24 Norte 0 -- -- 71
2020-01-11 04:00:00 5.8 10 Norte 16 Norte 0 -- -- 71
2020-01-11 03:00:00 5.2 6 Nordeste 21 Nordeste 0 -- -- 73
2020-01-11 02:00:00 5.4 8 Nordeste 19 Norte 0 -- -- 74
2020-01-11 01:00:00 6.8 13 Norte 21 Norte 0 -- -- 68
2020-01-11 00:00:00 7 11 Norte 19 Norte 0 -- -- 66
2020-01-10 23:00:00 7.1 9 Norte 20 Norte 0 -- -- 66
2020-01-10 22:00:00 7.5 13 Norte 24 Norte 0 -- -- 66
2020-01-10 21:00:00 8 13 Norte 22 Norte 0 -- -- 64
2020-01-10 20:00:00 8.9 14 Norte 32 Norte 0 -- -- 59
2020-01-10 19:00:00 9.3 19 Nordeste 32 Nordeste 0 -- -- 57
2020-01-10 18:00:00 10.4 19 Norte 36 Nordeste 0 -- -- 52
2020-01-10 17:00:00 11.6 18 Norte 36 Norte 0 -- -- 50
2020-01-10 16:00:00 12.1 17 Norte 37 Norte 0 -- -- 47
2020-01-10 15:00:00 11.8 23 Norte 36 Nordeste 0 -- -- 46
2020-01-10 14:00:00 11.5 20 Norte 32 Este 0 -- -- 49
2020-01-10 13:00:00 10.7 20 Norte 37 Norte 0 -- -- 54
2020-01-10 12:00:00 9.8 22 Norte 40 Norte 0 -- -- 57
2020-01-10 11:00:00 8.9 19 Nordeste 30 Nordeste 0 -- -- 58
2020-01-10 10:00:00 7.4 12 Norte 35 Norte 0 -- -- 65
2020-01-10 09:00:00 6.2 22 Norte 39 Norte 0 -- -- 69
2020-01-10 08:00:00 5.9 18 Norte 33 Norte 0 -- -- 71
2020-01-10 07:00:00 5.2 12 Norte 22 Norte 0 -- -- 75
2020-01-10 06:00:00 5.9 7 Norte 24 Nordeste 0 -- -- 71
2020-01-10 05:00:00 6.4 15 Norte 31 Norte 0 -- -- 69
2020-01-10 04:00:00 6.8 17 Norte 35 Norte 0 -- -- 69
2020-01-10 03:00:00 7.6 21 Nordeste 36 Nordeste 0 -- -- 66
2020-01-10 02:00:00 7.2 6 Nordeste 23 Norte 0 -- -- 75
2020-01-10 01:00:00 8.1 10 Norte 17 Norte 0 -- -- 75
2020-01-10 00:00:00 7.6 8 Norte 13 Norte 0 -- -- 77
2020-01-09 23:00:00 7.2 6 Norte 12 Norte 0 -- -- 83
2020-01-09 22:00:00 7.5 3 Sudeste 9 Noroeste 0 -- -- 85
2020-01-09 21:00:00 8.2 6 Norte 9 Norte 0 -- -- 83
2020-01-09 20:00:00 9.7 3 Norte 6 Sudeste 0 -- -- 80
2020-01-09 19:00:00 10.7 6 Sudeste 10 Sudeste 0 -- -- 72
2020-01-09 18:00:00 12.2 4 Sur 13 Sudoeste 0 -- -- 69
2020-01-09 17:00:00 12.9 8 Sur 17 Sudoeste 0 -- -- 64
2020-01-09 16:00:00 14.2 9 Sur 15 Sudoeste 0 -- -- 60
2020-01-09 15:00:00 14.2 9 Sur 15 Sur 0 -- -- 58
2020-01-09 14:00:00 13.9 6 Sudoeste 12 Sudoeste 0 -- -- 56
2020-01-09 13:00:00 12.2 2 Sur 9 Oeste 0 -- -- 62
2020-01-09 12:00:00 10 4 Oeste 8 Oeste 0 -- -- 70
2020-01-09 11:00:00 6.9 6 Este 10 Nordeste 0 -- -- 84
2020-01-09 10:00:00 3.5 5 Norte 9 Noroeste 0 -- -- 95
2020-01-09 09:00:00 1.6 5 Nordeste 8 Nordeste 0 -- -- 97
2020-01-09 08:00:00 1.2 2 Este 5 Noroeste 0 -- -- 95
2020-01-09 07:00:00 1.9 3 Nordeste 7 Norte 0 -- -- 94
2020-01-09 06:00:00 2.6 4 Norte 12 Norte 0 -- -- 94
2020-01-09 05:00:00 1.8 3 Este 6 Norte 0 -- -- 94
2020-01-09 04:00:00 3.6 5 Norte 9 Nordeste 0 -- -- 91
2020-01-09 03:00:00 3.1 4 Este 9 Nordeste 0 -- -- 95
2020-01-09 02:00:00 3.3 4 Nordeste 11 Nordeste 0 -- -- 95
2020-01-09 01:00:00 2.6 2 Norte 5 Este 0 -- -- 95
2020-01-09 00:00:00 3.1 4 Este 6 Nordeste 0 -- -- 95
2020-01-08 23:00:00 3.7 4 Norte -- -- 0 -- -- 94
2020-01-08 22:00:00 3.8 3 Nordeste 5 Este 0 -- -- 91
2020-01-08 21:00:00 5.1 0 Calma 4 Noroeste 0 -- -- 88
2020-01-08 20:00:00 7.3 2 Sudoeste 7 Sudoeste 0 -- -- 79
2020-01-08 19:00:00 8.8 6 Sudoeste 7 Sudoeste 0 -- -- 73
2020-01-08 18:00:00 11.6 5 Sudoeste 8 Sudoeste 0 -- -- 65
2020-01-08 17:00:00 13.9 3 Sudoeste 5 Sudoeste 0 -- -- 47
2020-01-08 16:00:00 14.7 0 Calma 7 Noroeste 0 -- -- 45
2020-01-08 15:00:00 13.7 2 Nordeste 5 Este 0 -- -- 49
2020-01-08 14:00:00 11.9 0 Calma 7 Sudoeste 0 -- -- 53
2020-01-08 13:00:00 9.3 0 Calma 7 Sur 0 -- -- 60
2020-01-08 12:00:00 6.8 3 Sur 6 Sur 0 -- -- 76
2020-01-08 11:00:00 4 2 Sudoeste 4 Nordeste 0 -- -- 85
2020-01-08 10:00:00 0.8 3 Nordeste 6 Norte 0 -- -- 95
2020-01-08 09:00:00 -1 0 Calma 6 Nordeste 0 -- -- 94
2020-01-08 08:00:00 -0.9 0 Calma 5 Norte 0 -- -- 94
2020-01-08 07:00:00 -0.2 3 Nordeste 6 Norte 0 -- -- 89
2020-01-08 06:00:00 1 3 Oeste 8 Sudoeste 0 -- -- 90
2020-01-08 05:00:00 1 4 Sudoeste 9 Norte 0 -- -- 91
2020-01-08 04:00:00 1.2 2 Sudoeste 11 Nordeste 0 -- -- 92
2020-01-08 03:00:00 3.2 6 Nordeste 13 Nordeste 0 -- -- 83
2020-01-08 02:00:00 3.9 7 Nordeste 14 Nordeste 0 -- -- 85
2020-01-08 01:00:00 2.7 4 Nordeste 7 Nordeste 0 -- -- 93
2020-01-08 00:00:00 2.8 5 Nordeste 9 Norte 0 -- -- 94
2020-01-07 23:00:00 3 3 Norte 6 Nordeste 0 -- -- 94
2020-01-07 22:00:00 4.3 0 Calma 5 Norte 0 -- -- 93
2020-01-07 21:00:00 5.1 2 Nordeste 5 Nordeste 0 -- -- 90
2020-01-07 20:00:00 6.1 3 Nordeste 6 Sudoeste 0 -- -- 83
2020-01-07 19:00:00 9.3 5 Sudoeste 8 Sudoeste 0 -- -- 72
2020-01-07 18:00:00 12.3 5 Sudoeste 7 Sudoeste 0 -- -- 61
2020-01-07 17:00:00 14.3 3 Sudoeste 6 Sudoeste 0 -- -- 52
2020-01-07 16:00:00 15.3 3 Sudoeste 8 Oeste 0 -- -- 48
2020-01-07 15:00:00 14.6 2 Sudoeste 9 Oeste 0 -- -- 48
2020-01-07 14:00:00 13.3 3 Sudoeste 6 Sudoeste 0 -- -- 51
2020-01-07 13:00:00 11.3 3 Este 7 Nordeste 0 -- -- 53
2020-01-07 12:00:00 9.3 5 Nordeste 15 Nordeste 0 -- -- 60
2020-01-07 11:00:00 7.3 8 Nordeste 15 Nordeste 0 -- -- 74
2020-01-07 10:00:00 4 6 Nordeste 15 Nordeste 0 -- -- 85
2020-01-07 09:00:00 1.9 6 Nordeste 11 Nordeste 0 -- -- 90
2020-01-07 08:00:00 1.7 5 Nordeste 10 Nordeste 0 -- -- 91
2020-01-07 07:00:00 1.4 5 Nordeste 9 Nordeste 0 -- -- 93
2020-01-07 06:00:00 0.8 0 Calma 10 Nordeste 0 -- -- 93
2020-01-07 05:00:00 1.3 5 Nordeste 11 Nordeste 0 -- -- 92
2020-01-07 04:00:00 2.3 5 Nordeste 9 Nordeste 0 -- -- 93
2020-01-07 03:00:00 1.1 6 Nordeste 9 Nordeste 0 -- -- 93
2020-01-07 02:00:00 2.8 4 Nordeste 10 Norte 0 -- -- 90
2020-01-07 01:00:00 2.8 5 Norte 12 Norte 0 -- -- 92
2020-01-07 00:00:00 3.6 4 Nordeste 9 Nordeste 0 -- -- 93
2020-01-06 23:00:00 4 4 Nordeste 9 Norte 0 -- -- 91
2020-01-06 22:00:00 4.6 2 Sudoeste 5 Nordeste 0 -- -- 92
2020-01-06 21:00:00 5.2 4 Este 8 Noroeste 0 -- -- 89
2020-01-06 20:00:00 5.8 3 Norte 4 Sudoeste 0 -- -- 82
2020-01-06 19:00:00 8.6 5 Sudoeste 7 Sudoeste 0 -- -- 71
2020-01-06 18:00:00 11.2 4 Oeste 6 Sudoeste 0 -- -- 64
2020-01-06 17:00:00 12.9 3 Sudoeste 9 Sudoeste 0 -- -- 56
2020-01-06 16:00:00 13.8 3 Sudoeste 9 Sudoeste 0 -- -- 52
2020-01-06 15:00:00 13.8 5 Sudoeste 10 Sur 0 -- -- 50
2020-01-06 14:00:00 12.7 3 Sudoeste 7 Sudoeste 0 -- -- 50
2020-01-06 13:00:00 10.1 3 Nordeste 9 Norte 0 -- -- 55
2020-01-06 12:00:00 8.4 4 Norte 10 Nordeste 0 -- -- 63
2020-01-06 11:00:00 5.6 5 Nordeste 10 Nordeste 0 -- -- 76
2020-01-06 10:00:00 3.1 6 Nordeste 10 Nordeste 0 -- -- 85